Time;durP1;ratioP1;P1;durP2;ratioP2;P2;SDS_P1;SDS_P2;PMS_P1;PMS_P2;Temp;Humidity;BMP_temperature;BMP_pressure;BME280_temperature;BME280_humidity;BME280_pressure;Samples;Min_cycle;Max_cycle;Signal;HPM_P1;HPM_P2
2022/04/15 00:00:33;;;;;;;7.25;4.10;;;19.70;55.60;;;;;;4308314;33;20077;-72
2022/04/15 00:02:59;;;;;;;6.78;3.85;;;19.70;55.70;;;;;;4308310;33;20267;-72
2022/04/15 00:05:37;;;;;;;5.70;3.90;;;19.70;55.60;;;;;;4308320;33;20222;-72
2022/04/15 00:08:09;;;;;;;7.65;4.18;;;19.70;55.60;;;;;;4308384;33;20145;-72
2022/04/15 00:10:37;;;;;;;6.33;4.20;;;19.70;55.60;;;;;;4309038;33;20096;-71
2022/04/15 00:13:11;;;;;;;7.85;3.50;;;19.70;56.60;;;;;;4308181;33;20200;-71
2022/04/15 00:15:39;;;;;;;6.80;4.03;;;19.70;55.60;;;;;;4309527;33;20081;-71
2022/04/15 00:18:05;;;;;;;4.93;3.58;;;19.70;55.60;;;;;;4309137;33;20081;-71
2022/04/15 00:20:32;;;;;;;5.70;4.00;;;19.60;55.50;;;;;;4308930;33;20164;-72
2022/04/15 00:22:59;;;;;;;6.47;4.20;;;19.60;55.50;;;;;;4308918;33;20096;-72
2022/04/15 00:25:26;;;;;;;5.32;3.63;;;19.60;55.60;;;;;;4310624;33;20097;-71
2022/04/15 00:27:51;;;;;;;5.82;3.67;;;19.60;55.50;;;;;;4311851;33;20096;-71
2022/04/15 00:30:17;;;;;;;6.78;3.90;;;19.60;55.50;;;;;;4310416;33;20087;-71
2022/04/15 00:32:43;;;;;;;5.47;3.90;;;19.60;55.50;;;;;;4311865;33;20089;-71
2022/04/15 00:35:10;;;;;;;4.00;3.53;;;19.60;55.50;;;;;;4311792;33;20123;-71
2022/04/15 00:37:36;;;;;;;5.65;3.80;;;19.60;55.50;;;;;;4311519;33;20215;-71
2022/04/15 00:40:04;;;;;;;6.30;4.03;;;19.60;55.50;;;;;;4310360;33;20412;-71
2022/04/15 00:42:30;;;;;;;4.47;3.70;;;19.60;55.50;;;;;;4311061;33;20111;-72
2022/04/15 00:44:58;;;;;;;5.63;3.60;;;19.60;55.50;;;;;;4310597;33;20116;-72
2022/04/15 00:47:55;;;;;;;5.78;4.03;;;19.60;55.50;;;;;;4310414;33;20081;-71
2022/04/15 00:50:23;;;;;;;4.80;3.50;;;19.60;55.50;;;;;;4297051;33;20530;-72
2022/04/15 00:52:52;;;;;;;5.57;3.53;;;19.60;55.50;;;;;;4310738;33;20136;-72
2022/04/15 00:55:20;;;;;;;6.03;3.63;;;19.50;55.40;;;;;;4311298;33;20095;-72
2022/04/15 00:57:55;;;;;;;4.97;3.42;;;19.50;55.40;;;;;;4310955;33;20099;-71
2022/04/15 01:00:22;;;;;;;6.35;3.88;;;19.50;55.40;;;;;;4311207;33;20260;-72
2022/04/15 01:02:48;;;;;;;4.63;3.40;;;19.50;55.40;;;;;;4311086;33;20092;-71
2022/04/15 01:05:15;;;;;;;7.10;3.67;;;19.50;55.40;;;;;;4310301;33;20093;-71
2022/04/15 01:07:46;;;;;;;5.88;3.50;;;19.50;55.40;;;;;;4311272;33;20199;-72
2022/04/15 01:10:14;;;;;;;6.15;3.80;;;19.50;55.40;;;;;;4311425;33;20101;-72
2022/04/15 01:12:44;;;;;;;5.57;3.60;;;19.50;55.40;;;;;;4311349;33;20168;-71
2022/04/15 01:15:15;;;;;;;5.18;3.60;;;19.50;56.30;;;;;;4311097;33;20274;-71
2022/04/15 01:17:41;;;;;;;4.35;3.13;;;19.50;55.40;;;;;;4311332;33;20132;-72
2022/04/15 01:20:12;;;;;;;5.70;3.63;;;19.50;55.40;;;;;;4310076;33;20104;-71
2022/04/15 01:22:46;;;;;;;5.68;3.00;;;19.50;55.40;;;;;;4311083;33;20095;-72
2022/04/15 01:25:16;;;;;;;5.10;3.45;;;19.50;55.30;;;;;;4311413;33;20089;-71
2022/04/15 01:27:44;;;;;;;5.50;3.20;;;19.50;55.30;;;;;;4311152;33;20091;-71
2022/04/15 01:30:12;;;;;;;6.85;3.42;;;19.40;55.30;;;;;;4311184;33;20148;-72
2022/04/15 01:32:38;;;;;;;3.97;3.17;;;19.40;55.30;;;;;;4310835;33;20160;-72
2022/04/15 01:35:06;;;;;;;4.40;3.25;;;19.40;55.30;;;;;;4310927;33;20097;-71
2022/04/15 01:37:32;;;;;;;4.47;3.20;;;19.40;55.30;;;;;;4310144;33;20087;-71
2022/04/15 01:39:58;;;;;;;5.32;3.28;;;19.40;55.30;;;;;;4311067;33;20076;-71
2022/04/15 01:42:25;;;;;;;4.45;3.33;;;19.40;55.20;;;;;;4309764;33;20099;-71
2022/04/15 01:44:51;;;;;;;4.80;3.40;;;19.40;55.30;;;;;;4310996;33;20084;-71
2022/04/15 01:47:17;;;;;;;4.13;3.05;;;19.40;55.30;;;;;;4310997;33;20398;-71
2022/04/15 01:49:43;;;;;;;4.55;3.20;;;19.40;55.30;;;;;;4309832;33;20089;-71
2022/04/15 01:52:09;;;;;;;3.92;3.25;;;19.40;55.30;;;;;;4310317;33;20091;-72
2022/04/15 01:54:36;;;;;;;4.07;3.05;;;19.40;55.20;;;;;;4310590;33;20081;-71
2022/04/15 01:57:02;;;;;;;4.80;3.15;;;19.40;55.30;;;;;;4310422;33;20096;-71
2022/04/15 01:59:28;;;;;;;4.72;3.05;;;19.40;55.20;;;;;;4310896;33;20073;-71
2022/04/15 02:01:56;;;;;;;5.53;3.45;;;19.40;55.20;;;;;;4310742;33;20132;-71
2022/04/15 02:04:23;;;;;;;4.78;3.50;;;19.40;55.20;;;;;;4310724;33;20081;-71
2022/04/15 02:06:49;;;;;;;4.15;2.83;;;19.40;55.20;;;;;;4310579;33;20177;-72
2022/04/15 02:09:15;;;;;;;5.45;3.15;;;19.40;55.20;;;;;;4310453;33;20097;-72
2022/04/15 02:11:41;;;;;;;6.00;2.95;;;19.40;55.20;;;;;;4310267;33;20538;-71
2022/04/15 02:14:07;;;;;;;3.33;2.92;;;19.40;55.20;;;;;;4310389;33;20085;-72
2022/04/15 02:16:34;;;;;;;5.00;3.10;;;19.40;55.20;;;;;;4310317;33;20092;-71
2022/04/15 02:19:00;;;;;;;5.25;3.00;;;19.40;55.20;;;;;;4310019;33;20129;-71
2022/04/15 02:21:25;;;;;;;4.05;3.03;;;19.30;55.10;;;;;;4309764;33;20108;-71
2022/04/15 02:23:51;;;;;;;4.07;2.97;;;19.30;55.10;;;;;;4309535;33;20139;-71
2022/04/15 02:26:17;;;;;;;6.30;3.20;;;19.30;55.10;;;;;;4309968;33;20081;-71
2022/04/15 02:28:43;;;;;;;4.45;2.85;;;19.30;55.10;;;;;;4309799;33;20084;-72
2022/04/15 02:31:09;;;;;;;6.93;3.05;;;19.30;55.10;;;;;;4308726;33;20510;-71
2022/04/15 02:33:35;;;;;;;3.40;2.80;;;19.30;55.10;;;;;;4309746;33;20210;-71
2022/04/15 02:36:01;;;;;;;5.03;2.70;;;19.30;55.10;;;;;;4311561;33;20092;-71
2022/04/15 02:38:27;;;;;;;4.15;2.90;;;19.30;55.10;;;;;;4313367;33;20189;-72
2022/04/15 02:40:53;;;;;;;4.63;2.90;;;19.30;55.10;;;;;;4309309;33;20340;-72
2022/04/15 02:43:20;;;;;;;3.65;2.92;;;19.30;55.10;;;;;;4309578;33;20065;-71
2022/04/15 02:45:46;;;;;;;4.53;2.80;;;19.30;55.10;;;;;;4309445;33;20088;-71
2022/04/15 02:48:13;;;;;;;4.18;2.75;;;19.30;55.10;;;;;;4309129;33;20093;-72
2022/04/15 02:50:39;;;;;;;3.38;2.58;;;19.30;55.10;;;;;;4311477;33;20081;-72
2022/04/15 02:53:05;;;;;;;3.97;2.55;;;19.20;55.00;;;;;;4308994;33;20073;-72
2022/04/15 02:55:32;;;;;;;4.93;3.28;;;19.20;55.00;;;;;;4309560;33;20085;-72
2022/04/15 02:57:58;;;;;;;3.83;2.45;;;19.20;55.00;;;;;;4309346;33;20073;-71
2022/04/15 03:00:24;;;;;;;4.65;2.80;;;19.20;55.00;;;;;;4309103;33;20392;-71
2022/04/15 03:02:50;;;;;;;4.78;2.72;;;19.20;55.00;;;;;;4308751;33;20248;-72
2022/04/15 03:05:16;;;;;;;5.22;2.80;;;19.20;55.00;;;;;;4308691;33;20089;-71
2022/04/15 03:07:42;;;;;;;3.10;2.75;;;19.20;55.00;;;;;;4308720;33;20397;-72
2022/04/15 03:10:08;;;;;;;3.83;2.80;;;19.20;55.00;;;;;;4308447;33;20150;-72
2022/04/15 03:12:35;;;;;;;2.75;2.45;;;19.20;55.00;;;;;;4295847;33;20220;-72
2022/04/15 03:15:02;;;;;;;4.32;2.30;;;19.20;55.00;;;;;;4308650;33;20198;-72
2022/04/15 03:17:28;;;;;;;3.78;2.65;;;19.20;55.00;;;;;;4309437;33;20507;-71
2022/04/15 03:19:54;;;;;;;5.10;2.92;;;19.20;54.90;;;;;;4309706;33;20153;-72
2022/04/15 03:22:20;;;;;;;4.53;2.80;;;19.20;54.90;;;;;;4309568;33;20097;-72
2022/04/15 03:24:47;;;;;;;3.75;2.40;;;19.20;54.90;;;;;;4309699;33;20084;-71
2022/04/15 03:27:13;;;;;;;3.65;2.72;;;19.20;54.90;;;;;;4309664;33;20077;-71
2022/04/15 03:29:38;;;;;;;5.32;2.65;;;19.20;54.90;;;;;;4309424;33;20478;-71
2022/04/15 03:32:04;;;;;;;3.05;2.53;;;19.20;54.90;;;;;;4309787;33;20083;-71
2022/04/15 03:34:31;;;;;;;4.28;2.70;;;19.10;54.90;;;;;;4309412;33;20097;-71
2022/04/15 03:36:56;;;;;;;3.33;2.60;;;19.20;54.90;;;;;;4309393;33;20066;-71
2022/04/15 03:39:22;;;;;;;3.10;2.60;;;19.10;54.80;;;;;;4309594;33;20077;-71
2022/04/15 03:41:48;;;;;;;2.30;2.10;;;19.10;54.80;;;;;;4308377;33;20165;-71
2022/04/15 03:44:14;;;;;;;4.10;2.50;;;19.10;54.80;;;;;;4309484;33;20164;-71
2022/04/15 03:46:40;;;;;;;3.20;2.42;;;19.20;54.90;;;;;;4309390;33;20573;-71
2022/04/15 03:49:07;;;;;;;4.57;2.35;;;19.10;54.80;;;;;;4309565;33;20085;-71
2022/04/15 03:51:34;;;;;;;3.60;2.40;;;19.20;54.90;;;;;;4308475;33;20108;-71
2022/04/15 03:54:00;;;;;;;2.67;2.17;;;19.10;54.80;;;;;;4308246;33;20100;-72
2022/04/15 03:56:27;;;;;;;2.45;2.20;;;19.10;54.80;;;;;;4308434;33;20430;-71
2022/04/15 03:58:52;;;;;;;3.47;2.40;;;19.10;54.90;;;;;;4309441;33;20077;-71
2022/04/15 04:01:18;;;;;;;3.10;2.10;;;19.10;54.80;;;;;;4312286;33;20731;-71
2022/04/15 04:03:45;;;;;;;2.95;2.35;;;19.10;54.80;;;;;;4312275;33;20093;-71
2022/04/15 04:06:11;;;;;;;2.83;2.30;;;19.10;54.80;;;;;;4312284;33;20120;-71
2022/04/15 04:08:37;;;;;;;4.03;2.58;;;19.10;54.80;;;;;;4312797;33;20555;-71
2022/04/15 04:11:03;;;;;;;2.83;2.30;;;19.10;54.80;;;;;;4311968;33;20070;-71
2022/04/15 04:13:28;;;;;;;2.90;1.92;;;19.10;54.80;;;;;;4310949;33;20099;-71
2022/04/15 04:15:54;;;;;;;2.78;2.10;;;19.10;54.80;;;;;;4311922;33;20088;-71
2022/04/15 04:18:21;;;;;;;2.88;2.20;;;19.10;54.80;;;;;;4311107;33;20213;-71
2022/04/15 04:20:50;;;;;;;3.20;2.25;;;19.00;54.80;;;;;;4311088;33;20085;-71
2022/04/15 04:23:16;;;;;;;3.25;2.15;;;19.00;54.80;;;;;;4311845;33;20101;-72
2022/04/15 04:25:42;;;;;;;3.30;2.20;;;19.00;54.80;;;;;;4311854;33;20550;-71
2022/04/15 04:28:08;;;;;;;2.20;2.00;;;19.10;54.80;;;;;;4312048;33;20091;-72
2022/04/15 04:30:33;;;;;;;3.58;2.30;;;19.00;54.80;;;;;;4311721;33;20070;-71
2022/04/15 04:32:59;;;;;;;2.13;1.92;;;19.00;54.80;;;;;;4312067;33;20137;-71
2022/04/15 04:35:25;;;;;;;2.47;2.10;;;19.00;54.80;;;;;;4311591;33;20222;-71
2022/04/15 04:37:51;;;;;;;2.88;2.15;;;19.00;54.80;;;;;;4311757;33;20186;-71
2022/04/15 04:40:18;;;;;;;3.25;1.80;;;19.00;54.80;;;;;;4310869;33;20491;-71
2022/04/15 04:42:49;;;;;;;2.50;2.17;;;19.00;54.80;;;;;;4312062;33;20103;-72
2022/04/15 04:45:15;;;;;;;4.38;2.10;;;19.00;54.80;;;;;;4311545;33;20224;-71
2022/04/15 04:47:43;;;;;;;2.20;2.00;;;19.00;54.80;;;;;;4311735;33;20131;-71
2022/04/15 04:50:09;;;;;;;3.38;2.17;;;19.00;54.80;;;;;;4311484;33;20096;-71
2022/04/15 04:52:39;;;;;;;3.42;2.13;;;19.00;54.80;;;;;;4311303;33;20427;-72
2022/04/15 04:55:06;;;;;;;3.75;2.10;;;19.00;54.80;;;;;;4311003;33;20558;-71
2022/04/15 04:57:33;;;;;;;2.55;2.17;;;19.00;54.80;;;;;;4315404;33;20419;-71
2022/04/15 04:59:59;;;;;;;3.03;2.10;;;18.90;54.70;;;;;;4310876;33;20239;-71
2022/04/15 05:02:25;;;;;;;2.65;2.10;;;18.90;54.80;;;;;;4310976;33;20385;-71
2022/04/15 05:04:51;;;;;;;2.63;2.13;;;18.90;54.80;;;;;;4310694;33;20515;-71
2022/04/15 05:07:16;;;;;;;2.63;1.80;;;18.90;54.80;;;;;;4310765;33;20123;-72
2022/04/15 05:09:43;;;;;;;2.67;2.10;;;18.90;54.70;;;;;;4311005;33;20507;-71
2022/04/15 05:12:12;;;;;;;2.78;2.05;;;18.90;54.80;;;;;;4310627;33;20096;-72
2022/04/15 05:14:38;;;;;;;2.53;2.00;;;18.90;54.80;;;;;;4310883;33;20235;-71
2022/04/15 05:17:05;;;;;;;3.17;2.05;;;18.90;54.70;;;;;;4310106;33;20077;-71
2022/04/15 05:19:32;;;;;;;2.13;1.92;;;18.90;55.20;;;;;;4310602;33;20112;-71
2022/04/15 05:21:58;;;;;;;2.85;1.90;;;18.90;54.80;;;;;;4309727;33;20504;-72
2022/04/15 05:24:24;;;;;;;2.72;2.00;;;18.90;54.80;;;;;;4309989;33;20108;-71
2022/04/15 05:26:50;;;;;;;2.45;1.80;;;18.90;54.90;;;;;;4308788;33;20133;-72
2022/04/15 05:29:16;;;;;;;1.70;1.58;;;18.90;54.80;;;;;;4309220;33;20065;-71
2022/04/15 05:31:42;;;;;;;2.35;2.00;;;18.90;54.80;;;;;;4311052;33;20087;-71
2022/04/15 05:34:08;;;;;;;2.10;1.90;;;18.90;54.80;;;;;;4309996;33;20129;-71
2022/04/15 05:36:35;;;;;;;2.20;2.00;;;18.80;54.70;;;;;;4310927;33;20095;-71
2022/04/15 05:39:01;;;;;;;1.90;1.70;;;18.80;54.70;;;;;;4310829;33;20124;-71
2022/04/15 05:41:27;;;;;;;1.90;1.70;;;18.80;54.70;;;;;;4310939;33;20081;-71
2022/04/15 05:43:53;;;;;;;2.30;1.90;;;18.90;54.80;;;;;;4310705;33;20083;-71
2022/04/15 05:46:19;;;;;;;2.25;1.70;;;18.80;54.70;;;;;;4310770;33;20069;-71
2022/04/15 05:48:45;;;;;;;1.73;1.60;;;18.80;54.70;;;;;;4310868;33;20131;-71
2022/04/15 05:51:11;;;;;;;2.58;1.77;;;18.80;54.70;;;;;;4309790;33;20147;-72
2022/04/15 05:53:37;;;;;;;2.60;1.85;;;18.80;54.70;;;;;;4309095;33;20528;-71
2022/04/15 05:56:03;;;;;;;2.58;1.80;;;18.80;54.70;;;;;;4310723;33;20175;-71
2022/04/15 05:58:30;;;;;;;1.65;1.50;;;18.80;54.70;;;;;;4310113;33;20121;-71
2022/04/15 06:00:56;;;;;;;2.40;1.63;;;18.80;54.70;;;;;;4310508;33;20416;-71
2022/04/15 06:03:22;;;;;;;2.30;1.70;;;18.80;54.70;;;;;;4310477;33;20186;-72
2022/04/15 06:05:49;;;;;;;2.05;1.63;;;18.80;54.70;;;;;;4310756;33;20111;-71
2022/04/15 06:08:16;;;;;;;2.47;1.83;;;18.80;54.70;;;;;;4310398;33;20165;-71
2022/04/15 06:10:42;;;;;;;2.58;1.77;;;18.80;54.70;;;;;;4310549;33;20093;-71
2022/04/15 06:13:19;;;;;;;1.98;1.58;;;18.80;54.70;;;;;;4310549;33;20088;-71
2022/04/15 06:15:58;;;;;;;2.25;1.75;;;18.70;54.70;;;;;;4310119;33;20089;-71
2022/04/15 06:18:34;;;;;;;2.35;1.70;;;18.80;54.80;;;;;;4309626;33;20469;-71
2022/04/15 06:21:01;;;;;;;2.30;1.50;;;18.70;54.70;;;;;;4309910;33;20175;-71
2022/04/15 06:23:27;;;;;;;2.10;1.88;;;18.80;54.70;;;;;;4296335;33;20099;-71
2022/04/15 06:25:53;;;;;;;1.85;1.60;;;18.70;54.70;;;;;;4297274;33;20085;-71
2022/04/15 06:28:21;;;;;;;2.33;1.60;;;18.70;54.70;;;;;;4309702;33;20077;-71
2022/04/15 06:30:51;;;;;;;2.78;1.80;;;18.70;54.70;;;;;;4310288;33;20089;-72
2022/04/15 06:33:20;;;;;;;1.92;1.70;;;18.70;54.60;;;;;;4310244;33;20093;-71
2022/04/15 06:35:46;;;;;;;2.17;1.90;;;18.80;54.70;;;;;;4310236;33;20070;-71
2022/04/15 06:38:12;;;;;;;2.00;1.60;;;18.70;54.70;;;;;;4309736;33;20238;-70
2022/04/15 06:40:40;;;;;;;2.75;1.70;;;18.70;54.80;;;;;;4310071;33;20074;-70
2022/04/15 06:43:08;;;;;;;3.20;1.90;;;18.70;54.70;;;;;;4309873;33;20164;-70
2022/04/15 06:45:34;;;;;;;5.18;1.88;;;18.70;54.30;;;;;;4310198;33;20084;-70
2022/04/15 06:48:00;;;;;;;2.70;1.83;;;18.70;54.20;;;;;;4309036;33;20129;-69
2022/04/15 06:50:26;;;;;;;2.35;1.73;;;18.80;54.10;;;;;;4309979;33;20104;-70
2022/04/15 06:52:52;;;;;;;4.28;1.70;;;18.80;54.40;;;;;;4309621;33;20097;-71
2022/04/15 06:55:18;;;;;;;5.28;1.80;;;18.80;54.40;;;;;;4309990;33;20411;-70
2022/04/15 06:57:44;;;;;;;3.88;1.80;;;18.80;54.40;;;;;;4309385;33;20433;-70
2022/04/15 07:00:13;;;;;;;4.07;1.80;;;18.90;54.50;;;;;;4308919;33;20708;-70
2022/04/15 07:02:41;;;;;;;2.88;1.80;;;18.90;54.70;;;;;;4309778;33;20223;-69
2022/04/15 07:05:09;;;;;;;2.78;1.58;;;18.90;54.70;;;;;;4309839;33;20097;-70
2022/04/15 07:07:39;;;;;;;3.03;1.80;;;18.90;54.60;;;;;;4309687;33;20136;-70
2022/04/15 07:10:07;;;;;;;4.70;1.85;;;18.90;54.70;;;;;;4296738;33;20503;-70
2022/04/15 07:12:33;;;;;;;2.65;1.70;;;18.90;54.70;;;;;;4308741;33;20136;-70
2022/04/15 07:14:59;;;;;;;3.72;1.73;;;18.80;54.70;;;;;;4309819;33;20621;-69
2022/04/15 07:17:25;;;;;;;2.65;1.65;;;18.90;54.80;;;;;;4309817;33;20073;-69
2022/04/15 07:19:51;;;;;;;4.35;1.85;;;18.80;54.80;;;;;;4309473;33;20124;-69
2022/04/15 07:22:20;;;;;;;2.42;1.40;;;18.90;55.00;;;;;;4309447;33;20113;-69
2022/04/15 07:24:47;;;;;;;2.08;1.50;;;18.90;55.00;;;;;;4309852;33;20093;-70
2022/04/15 07:27:13;;;;;;;2.30;1.35;;;18.80;55.00;;;;;;4309919;33;20108;-70
2022/04/15 07:29:39;;;;;;;2.78;1.60;;;18.80;55.90;;;;;;4309665;33;20085;-70
2022/04/15 07:32:05;;;;;;;3.47;1.50;;;18.80;54.90;;;;;;4309802;33;20062;-70
2022/04/15 07:34:31;;;;;;;5.95;1.90;;;18.80;55.00;;;;;;4310225;33;20271;-70
2022/04/15 07:36:59;;;;;;;2.00;1.40;;;18.80;55.10;;;;;;4312483;33;20093;-70
2022/04/15 07:39:25;;;;;;;2.95;1.50;;;18.80;55.10;;;;;;4312820;33;20131;-70
2022/04/15 07:41:52;;;;;;;4.10;1.60;;;18.80;55.10;;;;;;4299576;33;20209;-70
2022/04/15 07:44:18;;;;;;;1.98;1.60;;;18.80;55.10;;;;;;4312793;33;20085;-70
2022/04/15 07:46:45;;;;;;;2.65;1.42;;;18.80;55.00;;;;;;4299557;33;20073;-71
2022/04/15 07:49:11;;;;;;;2.78;1.80;;;18.80;55.00;;;;;;4316442;33;20148;-69
2022/04/15 07:51:38;;;;;;;4.50;1.58;;;18.80;55.00;;;;;;4324795;33;20077;-69
2022/04/15 07:54:05;;;;;;;4.93;2.00;;;18.80;55.00;;;;;;4313892;33;20174;-69
2022/04/15 07:56:32;;;;;;;2.85;1.73;;;18.80;54.70;;;;;;4326972;33;20124;-70
2022/04/15 07:58:58;;;;;;;2.97;1.88;;;18.80;54.70;;;;;;4326866;33;20084;-70
2022/04/15 08:01:29;;;;;;;4.38;1.50;;;18.80;54.60;;;;;;4311284;33;20384;-70
2022/04/15 08:03:55;;;;;;;3.60;2.05;;;18.80;54.40;;;;;;4325747;33;20104;-69
2022/04/15 08:06:23;;;;;;;2.47;1.42;;;18.80;54.40;;;;;;4313783;33;20171;-69
2022/04/15 08:08:50;;;;;;;3.80;1.65;;;18.90;54.40;;;;;;4327004;33;20088;-70
2022/04/15 08:11:16;;;;;;;4.35;1.73;;;18.80;54.30;;;;;;4313722;33;20069;-70
2022/04/15 08:13:42;;;;;;;5.03;1.92;;;18.80;54.20;;;;;;4326865;33;20073;-70
2022/04/15 08:16:09;;;;;;;3.72;2.00;;;18.90;54.40;;;;;;4326625;33;20115;-71
2022/04/15 08:18:35;;;;;;;4.38;1.85;;;18.90;54.40;;;;;;4313259;33;20069;-71
2022/04/15 08:21:01;;;;;;;4.82;1.85;;;18.90;54.50;;;;;;4326215;33;20328;-72
2022/04/15 08:23:27;;;;;;;5.60;1.85;;;18.90;54.70;;;;;;4324594;33;20123;-72
2022/04/15 08:25:53;;;;;;;6.22;1.90;;;18.90;54.80;;;;;;4325859;33;20095;-72
2022/04/15 08:28:20;;;;;;;5.15;2.05;;;18.90;54.70;;;;;;4326698;33;20238;-71
2022/04/15 08:30:46;;;;;;;2.55;1.70;;;18.90;54.50;;;;;;4326770;33;20080;-72
2022/04/15 08:33:12;;;;;;;2.75;1.50;;;19.00;54.50;;;;;;4313357;33;20422;-73
2022/04/15 08:35:39;;;;;;;5.10;2.00;;;19.00;54.40;;;;;;4313365;33;20220;-72
2022/04/15 08:38:06;;;;;;;3.92;1.80;;;19.00;54.30;;;;;;4326321;33;20527;-72
2022/04/15 08:40:37;;;;;;;7.13;2.13;;;19.00;54.20;;;;;;4326559;33;20145;-71
2022/04/15 08:43:06;;;;;;;4.32;2.00;;;19.00;54.10;;;;;;4326281;33;20097;-70
2022/04/15 08:45:34;;;;;;;6.47;2.60;;;19.00;54.00;;;;;;4325039;33;20099;-70
2022/04/15 08:48:01;;;;;;;5.78;2.20;;;19.00;54.00;;;;;;4323885;33;20233;-70
2022/04/15 08:50:29;;;;;;;7.50;2.47;;;19.00;53.80;;;;;;4314358;33;20089;-70
2022/04/15 08:52:56;;;;;;;4.85;2.20;;;19.10;53.80;;;;;;4311189;33;20147;-71
2022/04/15 08:55:22;;;;;;;6.55;2.33;;;19.10;53.70;;;;;;4314622;33;20211;-71
2022/04/15 08:57:49;;;;;;;7.25;2.10;;;19.10;53.60;;;;;;4310496;33;20069;-70
2022/04/15 09:00:16;;;;;;;5.53;1.85;;;19.10;53.50;;;;;;4311529;33;20120;-70
2022/04/15 09:02:43;;;;;;;5.70;2.55;;;19.10;53.40;;;;;;4312823;33;20546;-71
2022/04/15 09:05:09;;;;;;;6.13;2.20;;;19.00;53.20;;;;;;4312904;33;20112;-71
2022/04/15 09:07:37;;;;;;;5.28;2.40;;;19.00;53.30;;;;;;4326210;33;20589;-70
2022/04/15 09:10:06;;;;;;;5.63;2.13;;;19.00;53.30;;;;;;4326072;33;20175;-70
2022/04/15 09:12:35;;;;;;;5.40;1.92;;;19.10;53.20;;;;;;4326100;33;20131;-70
2022/04/15 09:15:07;;;;;;;4.00;1.90;;;19.00;53.20;;;;;;4326004;33;20105;-70
2022/04/15 09:17:38;;;;;;;6.85;2.78;;;19.00;53.10;;;;;;4326011;33;20084;-70
2022/04/15 09:20:06;;;;;;;6.45;2.10;;;19.00;53.00;;;;;;4325845;33;20266;-70
2022/04/15 09:22:32;;;;;;;4.88;2.25;;;19.00;52.90;;;;;;4325231;33;20100;-70
2022/04/15 09:24:59;;;;;;;6.25;2.10;;;19.00;52.90;;;;;;4325459;33;20649;-70
2022/04/15 09:27:26;;;;;;;3.28;2.20;;;19.10;52.80;;;;;;4325569;33;20282;-71
2022/04/15 09:29:54;;;;;;;4.38;1.95;;;19.10;52.80;;;;;;4325655;33;20155;-70
2022/04/15 09:32:22;;;;;;;4.57;2.03;;;19.00;52.70;;;;;;4325828;33;20140;-70
2022/04/15 09:34:56;;;;;;;4.53;2.00;;;19.00;52.70;;;;;;4325329;33;20127;-70
2022/04/15 09:37:25;;;;;;;3.03;2.00;;;19.00;52.60;;;;;;4325508;33;20084;-70
2022/04/15 09:40:12;;;;;;;5.65;2.28;;;19.00;52.70;;;;;;4325576;33;20144;-69
2022/04/15 09:42:53;;;;;;;8.90;2.38;;;19.00;52.30;;;;;;4325123;33;20190;-69
2022/04/15 09:45:25;;;;;;;4.30;2.05;;;19.00;52.30;;;;;;4312211;33;20069;-70
2022/04/15 09:48:17;;;;;;;4.82;2.10;;;19.00;52.30;;;;;;4325528;33;20080;-69
2022/04/15 09:50:44;;;;;;;8.40;2.50;;;19.00;52.10;;;;;;4323315;33;20143;-69
2022/04/15 09:53:11;;;;;;;3.85;1.95;;;19.00;52.20;;;;;;4324867;33;20064;-70
2022/04/15 09:55:41;;;;;;;6.72;2.40;;;19.00;52.20;;;;;;4325084;33;20085;-69
2022/04/15 09:58:10;;;;;;;5.72;2.17;;;19.00;52.20;;;;;;4324143;33;20206;-69
2022/04/15 10:00:36;;;;;;;4.45;2.10;;;19.00;52.10;;;;;;4325001;33;20081;-70
2022/04/15 10:03:07;;;;;;;8.35;2.35;;;18.90;51.90;;;;;;4324904;33;20123;-70
2022/04/15 10:05:35;;;;;;;5.13;2.33;;;19.00;52.00;;;;;;4324780;33;20165;-69
2022/04/15 10:08:03;;;;;;;5.03;2.30;;;18.90;51.90;;;;;;4324807;33;20159;-69
2022/04/15 10:10:31;;;;;;;6.60;2.70;;;18.90;51.90;;;;;;4325189;33;20092;-69
2022/04/15 10:13:01;;;;;;;7.55;2.65;;;18.90;51.80;;;;;;4311457;33;20120;-69
2022/04/15 10:15:29;;;;;;;23.63;6.22;;;18.90;51.80;;;;;;4324884;33;20533;-70
2022/04/15 10:17:56;;;;;;;21.33;5.90;;;18.90;51.80;;;;;;4317132;33;20531;-71
2022/04/15 10:20:23;;;;;;;18.48;5.32;;;18.90;51.70;;;;;;4309293;33;20296;-70
2022/04/15 10:22:50;;;;;;;17.35;4.63;;;18.90;51.70;;;;;;4315548;33;20523;-71
2022/04/15 10:25:16;;;;;;;17.60;5.20;;;18.90;51.70;;;;;;4310262;33;20332;-71
2022/04/15 10:27:42;;;;;;;26.92;6.93;;;18.90;51.80;;;;;;4310115;33;20081;-71
2022/04/15 10:30:14;;;;;;;34.15;7.82;;;18.90;51.90;;;;;;4311234;33;20087;-71
2022/04/15 10:32:55;;;;;;;28.97;7.60;;;18.90;52.00;;;;;;4310569;33;20140;-71
2022/04/15 10:35:23;;;;;;;30.98;8.02;;;18.90;52.00;;;;;;4312134;33;20160;-70
2022/04/15 10:38:03;;;;;;;25.52;7.57;;;18.90;52.10;;;;;;4311798;33;20348;-70
2022/04/15 10:40:33;;;;;;;32.38;8.30;;;18.90;52.10;;;;;;4311990;33;20277;-70
2022/04/15 10:43:21;;;;;;;28.48;7.07;;;18.90;52.10;;;;;;4317306;33;20081;-71
2022/04/15 10:45:48;;;;;;;29.05;7.75;;;18.90;52.10;;;;;;4319146;33;20234;-70
2022/04/15 10:48:27;;;;;;;25.55;7.15;;;18.90;52.20;;;;;;4308303;33;20095;-70
2022/04/15 10:50:53;;;;;;;30.50;7.72;;;18.90;52.20;;;;;;4313980;33;20088;-70
2022/04/15 10:53:25;;;;;;;20.90;6.78;;;18.90;52.20;;;;;;4310545;33;20150;-71
2022/04/15 10:55:52;;;;;;;23.92;6.75;;;18.90;52.30;;;;;;4310305;33;20089;-70
2022/04/15 10:58:20;;;;;;;20.70;6.50;;;18.90;52.30;;;;;;4311756;33;20064;-70
2022/04/15 11:01:17;;;;;;;25.38;7.10;;;18.90;52.20;;;;;;4323944;33;20092;-71
2022/04/15 11:03:53;;;;;;;25.75;6.15;;;18.80;52.10;;;;;;4320864;33;20101;-71
2022/04/15 11:06:26;;;;;;;24.23;5.85;;;18.80;52.10;;;;;;4324170;33;20065;-72
2022/04/15 11:08:52;;;;;;;19.80;4.80;;;18.80;52.10;;;;;;4323762;33;20225;-71
2022/04/15 11:11:35;;;;;;;16.60;5.43;;;18.80;52.10;;;;;;4323486;33;20100;-71
2022/04/15 11:14:08;;;;;;;18.52;5.38;;;18.80;51.90;;;;;;4323452;33;20637;-71
2022/04/15 11:16:50;;;;;;;18.03;5.90;;;18.80;52.10;;;;;;4323644;33;20212;-71
2022/04/15 11:19:29;;;;;;;16.25;5.18;;;18.80;52.20;;;;;;4310015;33;20085;-71
2022/04/15 11:21:55;;;;;;;16.75;5.35;;;18.80;52.20;;;;;;4321569;33;20141;-71
2022/04/15 11:24:26;;;;;;;15.63;5.20;;;18.80;52.30;;;;;;4323522;33;20091;-71
2022/04/15 11:27:03;;;;;;;15.02;4.82;;;18.80;52.30;;;;;;4324157;33;20148;-71
2022/04/15 11:29:34;;;;;;;18.75;5.05;;;18.80;52.20;;;;;;4324397;33;20073;-70
2022/04/15 11:32:05;;;;;;;16.85;4.15;;;18.80;52.20;;;;;;4324261;33;20076;-70
2022/04/15 11:34:32;;;;;;;17.90;4.75;;;18.80;52.20;;;;;;4323856;33;20105;-70
2022/04/15 11:37:03;;;;;;;11.70;3.70;;;18.80;52.20;;;;;;4324146;33;20085;-70
2022/04/15 11:39:29;;;;;;;11.13;4.28;;;18.80;52.20;;;;;;4324335;33;20127;-69
2022/04/15 11:41:59;;;;;;;16.58;3.65;;;18.80;52.10;;;;;;4323338;33;20201;-70
2022/04/15 11:44:30;;;;;;;16.90;4.05;;;18.80;52.10;;;;;;4310109;33;20097;-70
2022/04/15 11:47:15;;;;;;;17.50;4.70;;;18.80;52.10;;;;;;4310473;33;20128;-70
2022/04/15 11:49:43;;;;;;;15.23;4.10;;;18.80;52.10;;;;;;4309950;33;20128;-70
2022/04/15 11:52:09;;;;;;;13.05;3.70;;;18.80;52.10;;;;;;4309135;33;20081;-70
2022/04/15 11:54:39;;;;;;;11.85;3.50;;;18.80;52.20;;;;;;4308631;33;20231;-72
2022/04/15 11:57:06;;;;;;;12.55;3.95;;;18.80;52.20;;;;;;4308838;33;20217;-70
2022/04/15 11:59:43;;;;;;;11.02;3.45;;;18.80;52.30;;;;;;4308002;33;20654;-69
2022/04/15 12:02:10;;;;;;;11.73;3.92;;;18.80;52.40;;;;;;4309740;33;20085;-70
2022/04/15 12:04:47;;;;;;;9.15;3.70;;;18.80;52.40;;;;;;4309064;33;20081;-70
2022/04/15 12:07:17;;;;;;;10.02;3.58;;;18.80;52.40;;;;;;4309317;33;20106;-69
2022/04/15 12:09:45;;;;;;;15.02;3.70;;;18.80;52.40;;;;;;4309196;33;20234;-69
2022/04/15 12:12:11;;;;;;;12.88;3.58;;;18.80;52.40;;;;;;4309171;33;20077;-69
2022/04/15 12:14:39;;;;;;;9.18;3.60;;;18.80;52.30;;;;;;4309480;33;20195;-70
2022/04/15 12:17:11;;;;;;;8.43;3.42;;;18.80;52.40;;;;;;4309348;33;20177;-69
2022/04/15 12:19:37;;;;;;;7.93;3.55;;;18.80;52.30;;;;;;4309101;33;20100;-68
2022/04/15 12:22:04;;;;;;;11.57;3.42;;;18.80;52.30;;;;;;4310451;33;20149;-69
2022/04/15 12:24:30;;;;;;;8.93;3.08;;;18.80;52.50;;;;;;4311808;33;20077;-70
2022/04/15 12:27:00;;;;;;;10.80;3.10;;;18.80;52.60;;;;;;4311912;33;20404;-69
2022/04/15 12:29:48;;;;;;;7.60;3.00;;;18.80;52.70;;;;;;4311841;33;20500;-70
2022/04/15 12:32:17;;;;;;;5.57;2.42;;;18.80;52.70;;;;;;4313015;33;20112;-70
2022/04/15 12:34:45;;;;;;;9.25;3.03;;;18.80;52.80;;;;;;4325594;33;20614;-69
2022/04/15 12:37:34;;;;;;;8.13;2.92;;;18.80;52.80;;;;;;4325457;33;20458;-68
2022/04/15 12:40:29;;;;;;;9.57;3.20;;;18.80;52.80;;;;;;4325792;33;20534;-69
2022/04/15 12:42:56;;;;;;;9.95;3.22;;;18.80;52.80;;;;;;4324211;33;20085;-70
2022/04/15 12:45:23;;;;;;;7.53;2.50;;;18.80;52.80;;;;;;4325552;33;20227;-69
2022/04/15 12:48:02;;;;;;;9.98;2.60;;;18.80;52.80;;;;;;4325027;33;20151;-69
2022/04/15 12:50:33;;;;;;;6.55;2.70;;;18.80;52.80;;;;;;4325442;33;20527;-69